sensor_id;sensor_type;location;lat;lon;timestamp;P1;durP1;ratioP1;P2;durP2;ratioP2
42192;SDS011;52467;40.114;18.306;2022-12-20T00:01:24;9.75;;;4.30;;
42192;SDS011;52467;40.114;18.306;2022-12-20T00:03:56;7.77;;;4.60;;
42192;SDS011;52467;40.114;18.306;2022-12-20T00:06:25;13.68;;;5.53;;
42192;SDS011;52467;40.114;18.306;2022-12-20T00:08:54;15.38;;;5.60;;
42192;SDS011;52467;40.114;18.306;2022-12-20T00:11:23;12.52;;;5.68;;
42192;SDS011;52467;40.114;18.306;2022-12-20T00:13:50;17.67;;;5.97;;
42192;SDS011;52467;40.114;18.306;2022-12-20T00:16:19;12.98;;;5.82;;
42192;SDS011;52467;40.114;18.306;2022-12-20T00:18:50;14.43;;;6.90;;
42192;SDS011;52467;40.114;18.306;2022-12-20T00:21:19;15.43;;;6.82;;
42192;SDS011;52467;40.114;18.306;2022-12-20T00:23:47;15.05;;;6.50;;
42192;SDS011;52467;40.114;18.306;2022-12-20T00:26:15;18.00;;;6.82;;
42192;SDS011;52467;40.114;18.306;2022-12-20T00:28:46;16.13;;;6.68;;
42192;SDS011;52467;40.114;18.306;2022-12-20T00:31:14;17.08;;;7.68;;
42192;SDS011;52467;40.114;18.306;2022-12-20T00:33:46;16.45;;;6.60;;
42192;SDS011;52467;40.114;18.306;2022-12-20T00:36:15;17.38;;;7.70;;
42192;SDS011;52467;40.114;18.306;2022-12-20T00:38:45;17.58;;;7.95;;
42192;SDS011;52467;40.114;18.306;2022-12-20T00:41:14;18.90;;;8.43;;
42192;SDS011;52467;40.114;18.306;2022-12-20T00:43:43;19.97;;;8.57;;
42192;SDS011;52467;40.114;18.306;2022-12-20T00:46:11;16.65;;;8.27;;
42192;SDS011;52467;40.114;18.306;2022-12-20T00:48:39;19.80;;;9.10;;
42192;SDS011;52467;40.114;18.306;2022-12-20T00:51:07;21.38;;;8.95;;
42192;SDS011;52467;40.114;18.306;2022-12-20T00:53:36;20.75;;;9.02;;
42192;SDS011;52467;40.114;18.306;2022-12-20T00:56:05;24.87;;;9.63;;
42192;SDS011;52467;40.114;18.306;2022-12-20T00:58:33;18.00;;;9.13;;
42192;SDS011;52467;40.114;18.306;2022-12-20T01:01:03;18.83;;;9.10;;
42192;SDS011;52467;40.114;18.306;2022-12-20T01:03:31;16.48;;;9.35;;
42192;SDS011;52467;40.114;18.306;2022-12-20T01:05:59;19.48;;;9.50;;
42192;SDS011;52467;40.114;18.306;2022-12-20T01:08:28;19.23;;;9.63;;
42192;SDS011;52467;40.114;18.306;2022-12-20T01:13:33;22.85;;;10.38;;
42192;SDS011;52467;40.114;18.306;2022-12-20T01:16:02;20.00;;;10.05;;
42192;SDS011;52467;40.114;18.306;2022-12-20T01:18:31;18.97;;;10.40;;
42192;SDS011;52467;40.114;18.306;2022-12-20T01:21:00;22.65;;;10.52;;
42192;SDS011;52467;40.114;18.306;2022-12-20T01:23:31;19.13;;;10.43;;
42192;SDS011;52467;40.114;18.306;2022-12-20T01:25:59;16.80;;;9.35;;
42192;SDS011;52467;40.114;18.306;2022-12-20T01:28:27;24.70;;;10.60;;
42192;SDS011;52467;40.114;18.306;2022-12-20T01:30:55;23.67;;;10.70;;
42192;SDS011;52467;40.114;18.306;2022-12-20T01:33:22;24.58;;;10.40;;
42192;SDS011;52467;40.114;18.306;2022-12-20T01:35:53;19.67;;;10.13;;
42192;SDS011;52467;40.114;18.306;2022-12-20T01:38:25;24.30;;;11.65;;
42192;SDS011;52467;40.114;18.306;2022-12-20T01:40:53;25.13;;;12.07;;
42192;SDS011;52467;40.114;18.306;2022-12-20T01:43:21;23.60;;;11.63;;
42192;SDS011;52467;40.114;18.306;2022-12-20T01:45:49;23.60;;;11.77;;
42192;SDS011;52467;40.114;18.306;2022-12-20T01:48:17;23.95;;;11.50;;
42192;SDS011;52467;40.114;18.306;2022-12-20T01:50:49;27.17;;;11.88;;
42192;SDS011;52467;40.114;18.306;2022-12-20T01:53:17;22.90;;;11.40;;
42192;SDS011;52467;40.114;18.306;2022-12-20T01:55:47;21.13;;;10.90;;
42192;SDS011;52467;40.114;18.306;2022-12-20T01:58:15;30.40;;;11.65;;
42192;SDS011;52467;40.114;18.306;2022-12-20T02:00:44;24.03;;;11.07;;
42192;SDS011;52467;40.114;18.306;2022-12-20T02:03:12;21.05;;;11.18;;
42192;SDS011;52467;40.114;18.306;2022-12-20T02:05:41;26.13;;;11.37;;
42192;SDS011;52467;40.114;18.306;2022-12-20T02:08:15;24.77;;;11.60;;
42192;SDS011;52467;40.114;18.306;2022-12-20T02:13:36;27.80;;;12.57;;
42192;SDS011;52467;40.114;18.306;2022-12-20T02:16:20;26.90;;;12.13;;
42192;SDS011;52467;40.114;18.306;2022-12-20T02:32:30;27.65;;;13.55;;
42192;SDS011;52467;40.114;18.306;2022-12-20T02:35:04;28.35;;;14.52;;
42192;SDS011;52467;40.114;18.306;2022-12-20T02:37:33;24.33;;;14.20;;
42192;SDS011;52467;40.114;18.306;2022-12-20T02:40:01;26.50;;;14.20;;
42192;SDS011;52467;40.114;18.306;2022-12-20T02:42:30;26.58;;;14.18;;
42192;SDS011;52467;40.114;18.306;2022-12-20T02:45:02;23.73;;;13.18;;
42192;SDS011;52467;40.114;18.306;2022-12-20T02:50:39;23.50;;;13.60;;
42192;SDS011;52467;40.114;18.306;2022-12-20T02:53:10;28.20;;;13.70;;
42192;SDS011;52467;40.114;18.306;2022-12-20T02:55:44;26.20;;;14.03;;
42192;SDS011;52467;40.114;18.306;2022-12-20T02:58:20;24.83;;;12.50;;
42192;SDS011;52467;40.114;18.306;2022-12-20T03:00:59;21.10;;;12.50;;
42192;SDS011;52467;40.114;18.306;2022-12-20T03:03:31;24.05;;;12.90;;
42192;SDS011;52467;40.114;18.306;2022-12-20T03:05:59;25.95;;;13.05;;
42192;SDS011;52467;40.114;18.306;2022-12-20T03:08:27;23.20;;;13.03;;
42192;SDS011;52467;40.114;18.306;2022-12-20T03:10:55;27.55;;;12.52;;
42192;SDS011;52467;40.114;18.306;2022-12-20T03:13:23;23.65;;;12.45;;
42192;SDS011;52467;40.114;18.306;2022-12-20T03:15:58;23.85;;;12.02;;
42192;SDS011;52467;40.114;18.306;2022-12-20T03:18:26;21.88;;;11.52;;
42192;SDS011;52467;40.114;18.306;2022-12-20T03:20:53;23.25;;;12.70;;
42192;SDS011;52467;40.114;18.306;2022-12-20T03:23:21;24.87;;;12.40;;
42192;SDS011;52467;40.114;18.306;2022-12-20T03:25:48;24.40;;;12.98;;
42192;SDS011;52467;40.114;18.306;2022-12-20T03:28:25;24.95;;;13.05;;
42192;SDS011;52467;40.114;18.306;2022-12-20T03:30:53;25.67;;;12.60;;
42192;SDS011;52467;40.114;18.306;2022-12-20T03:33:21;23.45;;;13.00;;
42192;SDS011;52467;40.114;18.306;2022-12-20T03:35:49;25.90;;;11.70;;
42192;SDS011;52467;40.114;18.306;2022-12-20T03:38:17;25.70;;;12.10;;
42192;SDS011;52467;40.114;18.306;2022-12-20T03:40:44;25.17;;;11.77;;
42192;SDS011;52467;40.114;18.306;2022-12-20T03:43:16;21.27;;;12.10;;
42192;SDS011;52467;40.114;18.306;2022-12-20T03:45:43;23.30;;;12.38;;
42192;SDS011;52467;40.114;18.306;2022-12-20T03:48:11;25.50;;;12.02;;
42192;SDS011;52467;40.114;18.306;2022-12-20T03:50:38;22.48;;;11.43;;
42192;SDS011;52467;40.114;18.306;2022-12-20T03:53:07;23.23;;;11.18;;
42192;SDS011;52467;40.114;18.306;2022-12-20T03:55:35;19.42;;;10.85;;
42192;SDS011;52467;40.114;18.306;2022-12-20T03:58:02;18.48;;;9.95;;
42192;SDS011;52467;40.114;18.306;2022-12-20T04:00:32;18.08;;;10.25;;
42192;SDS011;52467;40.114;18.306;2022-12-20T04:03:22;20.00;;;9.73;;
42192;SDS011;52467;40.114;18.306;2022-12-20T04:05:50;19.02;;;10.32;;
42192;SDS011;52467;40.114;18.306;2022-12-20T04:08:17;18.85;;;9.75;;
42192;SDS011;52467;40.114;18.306;2022-12-20T04:10:47;17.52;;;9.88;;
42192;SDS011;52467;40.114;18.306;2022-12-20T04:13:35;18.33;;;9.20;;
42192;SDS011;52467;40.114;18.306;2022-12-20T04:16:03;18.13;;;9.13;;
42192;SDS011;52467;40.114;18.306;2022-12-20T04:18:32;20.25;;;9.75;;
42192;SDS011;52467;40.114;18.306;2022-12-20T04:21:00;18.13;;;9.23;;
42192;SDS011;52467;40.114;18.306;2022-12-20T04:23:30;17.53;;;8.83;;
42192;SDS011;52467;40.114;18.306;2022-12-20T04:25:57;20.15;;;8.98;;
42192;SDS011;52467;40.114;18.306;2022-12-20T04:28:26;17.73;;;9.60;;
42192;SDS011;52467;40.114;18.306;2022-12-20T04:30:54;19.00;;;8.93;;
42192;SDS011;52467;40.114;18.306;2022-12-20T04:33:25;18.17;;;9.17;;
42192;SDS011;52467;40.114;18.306;2022-12-20T04:35:53;16.77;;;9.53;;
42192;SDS011;52467;40.114;18.306;2022-12-20T04:38:22;17.45;;;10.35;;
42192;SDS011;52467;40.114;18.306;2022-12-20T04:40:51;19.17;;;9.80;;
42192;SDS011;52467;40.114;18.306;2022-12-20T04:43:22;19.20;;;9.73;;
42192;SDS011;52467;40.114;18.306;2022-12-20T04:45:54;18.73;;;10.27;;
42192;SDS011;52467;40.114;18.306;2022-12-20T04:48:23;19.33;;;10.40;;
42192;SDS011;52467;40.114;18.306;2022-12-20T04:51:12;17.98;;;9.43;;
42192;SDS011;52467;40.114;18.306;2022-12-20T04:53:42;20.50;;;9.63;;
42192;SDS011;52467;40.114;18.306;2022-12-20T04:56:42;19.63;;;10.05;;
42192;SDS011;52467;40.114;18.306;2022-12-20T04:59:14;17.58;;;10.48;;
42192;SDS011;52467;40.114;18.306;2022-12-20T05:01:44;22.52;;;10.23;;
42192;SDS011;52467;40.114;18.306;2022-12-20T05:04:16;19.27;;;9.90;;
42192;SDS011;52467;40.114;18.306;2022-12-20T05:06:44;18.23;;;10.07;;
42192;SDS011;52467;40.114;18.306;2022-12-20T05:09:13;17.40;;;9.85;;
42192;SDS011;52467;40.114;18.306;2022-12-20T05:11:41;17.23;;;9.93;;
42192;SDS011;52467;40.114;18.306;2022-12-20T05:14:08;17.47;;;9.73;;
42192;SDS011;52467;40.114;18.306;2022-12-20T05:16:35;17.10;;;10.02;;
42192;SDS011;52467;40.114;18.306;2022-12-20T05:19:05;17.58;;;9.95;;
42192;SDS011;52467;40.114;18.306;2022-12-20T05:21:37;17.85;;;9.88;;
42192;SDS011;52467;40.114;18.306;2022-12-20T05:24:23;19.88;;;10.70;;
42192;SDS011;52467;40.114;18.306;2022-12-20T05:27:27;18.97;;;9.20;;
42192;SDS011;52467;40.114;18.306;2022-12-20T05:29:54;19.35;;;10.30;;
42192;SDS011;52467;40.114;18.306;2022-12-20T05:32:22;17.35;;;10.25;;
42192;SDS011;52467;40.114;18.306;2022-12-20T05:34:51;17.50;;;10.07;;
42192;SDS011;52467;40.114;18.306;2022-12-20T05:37:19;18.10;;;10.27;;
42192;SDS011;52467;40.114;18.306;2022-12-20T05:39:46;19.67;;;10.43;;
42192;SDS011;52467;40.114;18.306;2022-12-20T05:42:18;20.30;;;10.25;;
42192;SDS011;52467;40.114;18.306;2022-12-20T05:44:49;19.13;;;10.13;;
42192;SDS011;52467;40.114;18.306;2022-12-20T05:47:18;21.85;;;10.63;;
42192;SDS011;52467;40.114;18.306;2022-12-20T05:49:48;18.70;;;10.00;;
42192;SDS011;52467;40.114;18.306;2022-12-20T05:52:15;20.58;;;10.52;;
42192;SDS011;52467;40.114;18.306;2022-12-20T05:54:43;18.42;;;10.18;;
42192;SDS011;52467;40.114;18.306;2022-12-20T05:57:13;18.15;;;10.23;;
42192;SDS011;52467;40.114;18.306;2022-12-20T05:59:41;22.27;;;10.50;;
42192;SDS011;52467;40.114;18.306;2022-12-20T06:02:14;26.47;;;12.60;;
42192;SDS011;52467;40.114;18.306;2022-12-20T06:04:43;27.17;;;12.23;;
42192;SDS011;52467;40.114;18.306;2022-12-20T06:07:17;28.45;;;11.85;;
42192;SDS011;52467;40.114;18.306;2022-12-20T06:09:48;28.27;;;11.63;;
42192;SDS011;52467;40.114;18.306;2022-12-20T06:12:18;28.45;;;12.30;;
42192;SDS011;52467;40.114;18.306;2022-12-20T06:14:46;31.48;;;11.88;;
42192;SDS011;52467;40.114;18.306;2022-12-20T06:17:14;25.23;;;11.98;;
42192;SDS011;52467;40.114;18.306;2022-12-20T06:19:42;28.58;;;12.02;;
42192;SDS011;52467;40.114;18.306;2022-12-20T06:22:12;28.73;;;12.02;;
42192;SDS011;52467;40.114;18.306;2022-12-20T06:24:50;34.47;;;13.30;;
42192;SDS011;52467;40.114;18.306;2022-12-20T06:27:22;27.08;;;12.50;;
42192;SDS011;52467;40.114;18.306;2022-12-20T06:30:16;29.58;;;12.55;;
42192;SDS011;52467;40.114;18.306;2022-12-20T06:33:13;26.77;;;13.85;;
42192;SDS011;52467;40.114;18.306;2022-12-20T06:35:41;30.38;;;14.57;;
42192;SDS011;52467;40.114;18.306;2022-12-20T06:38:08;29.77;;;15.40;;
42192;SDS011;52467;40.114;18.306;2022-12-20T06:40:36;30.88;;;15.20;;
42192;SDS011;52467;40.114;18.306;2022-12-20T06:43:04;27.38;;;13.25;;
42192;SDS011;52467;40.114;18.306;2022-12-20T06:45:31;28.88;;;15.38;;
42192;SDS011;52467;40.114;18.306;2022-12-20T06:48:02;31.10;;;15.37;;
42192;SDS011;52467;40.114;18.306;2022-12-20T06:50:32;30.17;;;15.40;;
42192;SDS011;52467;40.114;18.306;2022-12-20T06:52:59;27.75;;;14.63;;
42192;SDS011;52467;40.114;18.306;2022-12-20T06:55:26;29.33;;;14.20;;
42192;SDS011;52467;40.114;18.306;2022-12-20T06:57:54;26.95;;;14.57;;
42192;SDS011;52467;40.114;18.306;2022-12-20T07:00:22;29.35;;;14.20;;
42192;SDS011;52467;40.114;18.306;2022-12-20T07:02:49;26.63;;;15.10;;
42192;SDS011;52467;40.114;18.306;2022-12-20T07:05:17;27.17;;;14.23;;
42192;SDS011;52467;40.114;18.306;2022-12-20T07:07:44;29.77;;;14.40;;
42192;SDS011;52467;40.114;18.306;2022-12-20T07:10:12;27.33;;;14.15;;
42192;SDS011;52467;40.114;18.306;2022-12-20T07:12:39;31.88;;;15.38;;
42192;SDS011;52467;40.114;18.306;2022-12-20T07:15:11;27.75;;;14.57;;
42192;SDS011;52467;40.114;18.306;2022-12-20T07:17:38;32.78;;;13.80;;
42192;SDS011;52467;40.114;18.306;2022-12-20T07:20:05;31.27;;;14.33;;
42192;SDS011;52467;40.114;18.306;2022-12-20T07:22:38;29.67;;;13.32;;
42192;SDS011;52467;40.114;18.306;2022-12-20T07:25:05;36.60;;;14.45;;
42192;SDS011;52467;40.114;18.306;2022-12-20T07:27:33;32.10;;;13.88;;
42192;SDS011;52467;40.114;18.306;2022-12-20T07:30:00;34.07;;;15.40;;
42192;SDS011;52467;40.114;18.306;2022-12-20T07:32:28;27.40;;;13.30;;
42192;SDS011;52467;40.114;18.306;2022-12-20T07:34:55;27.45;;;13.05;;
42192;SDS011;52467;40.114;18.306;2022-12-20T07:37:22;29.42;;;13.55;;
42192;SDS011;52467;40.114;18.306;2022-12-20T07:39:50;24.98;;;12.82;;
42192;SDS011;52467;40.114;18.306;2022-12-20T07:42:17;24.65;;;13.43;;
42192;SDS011;52467;40.114;18.306;2022-12-20T07:44:48;26.50;;;14.02;;
42192;SDS011;52467;40.114;18.306;2022-12-20T07:47:15;27.33;;;13.57;;
42192;SDS011;52467;40.114;18.306;2022-12-20T07:49:42;24.67;;;13.55;;
42192;SDS011;52467;40.114;18.306;2022-12-20T07:52:13;25.38;;;14.20;;
42192;SDS011;52467;40.114;18.306;2022-12-20T07:54:45;27.73;;;14.00;;
42192;SDS011;52467;40.114;18.306;2022-12-20T07:57:21;28.38;;;14.48;;
42192;SDS011;52467;40.114;18.306;2022-12-20T07:59:52;23.60;;;13.75;;
42192;SDS011;52467;40.114;18.306;2022-12-20T08:03:05;24.35;;;12.90;;
42192;SDS011;52467;40.114;18.306;2022-12-20T08:05:18;27.45;;;12.75;;
42192;SDS011;52467;40.114;18.306;2022-12-20T08:07:45;22.58;;;12.68;;
42192;SDS011;52467;40.114;18.306;2022-12-20T08:10:15;25.13;;;12.52;;
42192;SDS011;52467;40.114;18.306;2022-12-20T08:12:45;25.25;;;12.35;;
42192;SDS011;52467;40.114;18.306;2022-12-20T08:15:13;20.45;;;11.55;;
42192;SDS011;52467;40.114;18.306;2022-12-20T08:17:40;20.43;;;10.90;;
42192;SDS011;52467;40.114;18.306;2022-12-20T08:20:07;19.67;;;10.25;;
42192;SDS011;52467;40.114;18.306;2022-12-20T08:22:35;18.25;;;8.68;;
42192;SDS011;52467;40.114;18.306;2022-12-20T08:25:02;16.80;;;7.88;;
42192;SDS011;52467;40.114;18.306;2022-12-20T08:27:30;17.15;;;6.95;;
42192;SDS011;52467;40.114;18.306;2022-12-20T08:29:57;17.77;;;7.57;;
42192;SDS011;52467;40.114;18.306;2022-12-20T08:32:25;13.85;;;6.88;;
42192;SDS011;52467;40.114;18.306;2022-12-20T08:34:52;17.17;;;7.95;;
42192;SDS011;52467;40.114;18.306;2022-12-20T08:37:20;22.42;;;9.13;;
42192;SDS011;52467;40.114;18.306;2022-12-20T08:39:48;25.05;;;8.95;;
42192;SDS011;52467;40.114;18.306;2022-12-20T08:42:15;20.05;;;9.32;;
42192;SDS011;52467;40.114;18.306;2022-12-20T08:44:42;19.98;;;10.85;;
42192;SDS011;52467;40.114;18.306;2022-12-20T08:47:10;24.25;;;10.88;;
42192;SDS011;52467;40.114;18.306;2022-12-20T08:49:37;21.42;;;9.55;;
42192;SDS011;52467;40.114;18.306;2022-12-20T08:52:08;20.75;;;9.95;;
42192;SDS011;52467;40.114;18.306;2022-12-20T08:54:36;23.48;;;9.75;;
42192;SDS011;52467;40.114;18.306;2022-12-20T08:57:03;20.38;;;9.90;;
42192;SDS011;52467;40.114;18.306;2022-12-20T08:59:30;18.40;;;8.57;;
42192;SDS011;52467;40.114;18.306;2022-12-20T09:01:58;18.73;;;8.80;;
42192;SDS011;52467;40.114;18.306;2022-12-20T09:04:40;18.83;;;7.88;;
42192;SDS011;52467;40.114;18.306;2022-12-20T09:07:08;15.90;;;7.53;;
42192;SDS011;52467;40.114;18.306;2022-12-20T09:09:36;16.98;;;6.20;;
42192;SDS011;52467;40.114;18.306;2022-12-20T09:12:03;9.90;;;5.75;;
42192;SDS011;52467;40.114;18.306;2022-12-20T09:14:30;11.57;;;6.43;;
42192;SDS011;52467;40.114;18.306;2022-12-20T09:16:58;15.60;;;6.55;;
42192;SDS011;52467;40.114;18.306;2022-12-20T09:19:25;15.98;;;5.78;;
42192;SDS011;52467;40.114;18.306;2022-12-20T09:21:52;12.38;;;6.07;;
42192;SDS011;52467;40.114;18.306;2022-12-20T09:24:20;15.90;;;6.25;;
42192;SDS011;52467;40.114;18.306;2022-12-20T09:26:50;12.32;;;5.38;;
42192;SDS011;52467;40.114;18.306;2022-12-20T09:29:17;14.93;;;6.03;;
42192;SDS011;52467;40.114;18.306;2022-12-20T09:31:48;11.10;;;5.57;;
42192;SDS011;52467;40.114;18.306;2022-12-20T09:34:15;12.10;;;5.53;;
42192;SDS011;52467;40.114;18.306;2022-12-20T09:36:43;13.45;;;5.90;;
42192;SDS011;52467;40.114;18.306;2022-12-20T09:39:10;10.23;;;5.83;;
42192;SDS011;52467;40.114;18.306;2022-12-20T09:41:40;11.63;;;5.72;;
42192;SDS011;52467;40.114;18.306;2022-12-20T09:44:13;11.45;;;5.72;;
42192;SDS011;52467;40.114;18.306;2022-12-20T09:47:16;9.88;;;5.43;;
42192;SDS011;52467;40.114;18.306;2022-12-20T09:49:46;13.48;;;5.30;;
42192;SDS011;52467;40.114;18.306;2022-12-20T09:55:23;9.02;;;3.30;;
42192;SDS011;52467;40.114;18.306;2022-12-20T10:00:49;7.85;;;3.00;;
42192;SDS011;52467;40.114;18.306;2022-12-20T10:03:32;6.28;;;2.47;;
42192;SDS011;52467;40.114;18.306;2022-12-20T10:06:07;7.75;;;2.92;;
42192;SDS011;52467;40.114;18.306;2022-12-20T10:08:58;5.07;;;2.70;;
42192;SDS011;52467;40.114;18.306;2022-12-20T10:16:54;6.18;;;2.83;;
42192;SDS011;52467;40.114;18.306;2022-12-20T10:22:53;4.60;;;2.97;;
42192;SDS011;52467;40.114;18.306;2022-12-20T10:25:30;9.73;;;3.78;;
42192;SDS011;52467;40.114;18.306;2022-12-20T10:28:03;6.47;;;2.85;;
42192;SDS011;52467;40.114;18.306;2022-12-20T10:30:38;7.95;;;2.72;;
42192;SDS011;52467;40.114;18.306;2022-12-20T10:33:24;9.57;;;3.08;;
42192;SDS011;52467;40.114;18.306;2022-12-20T10:35:53;8.10;;;3.00;;
42192;SDS011;52467;40.114;18.306;2022-12-20T10:38:24;4.75;;;2.75;;
42192;SDS011;52467;40.114;18.306;2022-12-20T10:41:10;7.72;;;3.15;;
42192;SDS011;52467;40.114;18.306;2022-12-20T10:43:51;9.50;;;3.45;;
42192;SDS011;52467;40.114;18.306;2022-12-20T10:46:22;7.95;;;2.60;;
42192;SDS011;52467;40.114;18.306;2022-12-20T10:48:50;6.83;;;2.17;;
42192;SDS011;52467;40.114;18.306;2022-12-20T10:51:18;6.07;;;2.00;;
42192;SDS011;52467;40.114;18.306;2022-12-20T11:01:44;5.53;;;2.05;;
42192;SDS011;52467;40.114;18.306;2022-12-20T11:04:25;3.90;;;1.70;;
42192;SDS011;52467;40.114;18.306;2022-12-20T11:06:54;5.53;;;1.60;;
42192;SDS011;52467;40.114;18.306;2022-12-20T11:09:27;4.32;;;1.50;;
42192;SDS011;52467;40.114;18.306;2022-12-20T11:14:40;4.60;;;2.10;;
42192;SDS011;52467;40.114;18.306;2022-12-20T11:17:29;3.95;;;2.10;;
42192;SDS011;52467;40.114;18.306;2022-12-20T11:20:21;6.85;;;2.00;;
42192;SDS011;52467;40.114;18.306;2022-12-20T11:23:06;4.75;;;1.98;;
42192;SDS011;52467;40.114;18.306;2022-12-20T11:25:47;3.87;;;1.53;;
42192;SDS011;52467;40.114;18.306;2022-12-20T11:31:07;4.40;;;1.83;;
42192;SDS011;52467;40.114;18.306;2022-12-20T11:53:04;8.18;;;2.78;;
42192;SDS011;52467;40.114;18.306;2022-12-20T11:55:53;5.85;;;2.30;;
42192;SDS011;52467;40.114;18.306;2022-12-20T11:58:25;7.00;;;2.90;;
42192;SDS011;52467;40.114;18.306;2022-12-20T12:00:55;5.45;;;2.10;;
42192;SDS011;52467;40.114;18.306;2022-12-20T12:03:27;6.28;;;2.42;;
42192;SDS011;52467;40.114;18.306;2022-12-20T12:06:06;5.73;;;2.47;;
42192;SDS011;52467;40.114;18.306;2022-12-20T12:08:44;4.60;;;1.98;;
42192;SDS011;52467;40.114;18.306;2022-12-20T12:11:17;5.97;;;2.00;;
42192;SDS011;52467;40.114;18.306;2022-12-20T12:14:48;3.45;;;1.80;;
42192;SDS011;52467;40.114;18.306;2022-12-20T12:20:13;3.70;;;1.90;;
42192;SDS011;52467;40.114;18.306;2022-12-20T12:22:49;5.53;;;1.80;;
42192;SDS011;52467;40.114;18.306;2022-12-20T12:25:21;6.93;;;2.35;;
42192;SDS011;52467;40.114;18.306;2022-12-20T12:27:49;9.90;;;2.40;;
42192;SDS011;52467;40.114;18.306;2022-12-20T12:30:16;6.53;;;2.30;;
42192;SDS011;52467;40.114;18.306;2022-12-20T12:32:59;2.83;;;1.67;;
42192;SDS011;52467;40.114;18.306;2022-12-20T12:35:36;4.53;;;2.00;;
42192;SDS011;52467;40.114;18.306;2022-12-20T12:43:52;7.93;;;2.40;;
42192;SDS011;52467;40.114;18.306;2022-12-20T12:46:41;6.13;;;2.50;;
42192;SDS011;52467;40.114;18.306;2022-12-20T12:49:27;4.95;;;2.25;;
42192;SDS011;52467;40.114;18.306;2022-12-20T12:51:56;5.57;;;2.83;;
42192;SDS011;52467;40.114;18.306;2022-12-20T12:57:09;5.65;;;1.83;;
42192;SDS011;52467;40.114;18.306;2022-12-20T12:59:45;5.63;;;2.00;;
42192;SDS011;52467;40.114;18.306;2022-12-20T13:07:39;5.40;;;2.03;;
42192;SDS011;52467;40.114;18.306;2022-12-20T13:10:57;3.85;;;2.22;;
42192;SDS011;52467;40.114;18.306;2022-12-20T13:13:00;4.70;;;2.30;;
42192;SDS011;52467;40.114;18.306;2022-12-20T13:18:16;4.05;;;1.75;;
42192;SDS011;52467;40.114;18.306;2022-12-20T13:23:44;3.47;;;1.85;;
42192;SDS011;52467;40.114;18.306;2022-12-20T13:35:56;7.60;;;2.42;;
42192;SDS011;52467;40.114;18.306;2022-12-20T13:44:02;4.47;;;1.90;;
42192;SDS011;52467;40.114;18.306;2022-12-20T13:46:49;4.93;;;2.20;;
42192;SDS011;52467;40.114;18.306;2022-12-20T13:49:26;4.22;;;2.08;;
42192;SDS011;52467;40.114;18.306;2022-12-20T13:54:42;6.78;;;2.70;;
42192;SDS011;52467;40.114;18.306;2022-12-20T13:57:15;5.35;;;2.50;;
42192;SDS011;52467;40.114;18.306;2022-12-20T14:00:00;6.13;;;2.80;;
42192;SDS011;52467;40.114;18.306;2022-12-20T14:02:33;8.32;;;2.60;;
42192;SDS011;52467;40.114;18.306;2022-12-20T14:05:12;7.85;;;3.17;;
42192;SDS011;52467;40.114;18.306;2022-12-20T14:07:55;6.25;;;2.50;;
42192;SDS011;52467;40.114;18.306;2022-12-20T14:10:28;4.75;;;2.42;;
42192;SDS011;52467;40.114;18.306;2022-12-20T14:13:13;8.30;;;2.42;;
42192;SDS011;52467;40.114;18.306;2022-12-20T14:15:53;6.22;;;3.10;;
42192;SDS011;52467;40.114;18.306;2022-12-20T14:18:22;6.43;;;3.10;;
42192;SDS011;52467;40.114;18.306;2022-12-20T14:21:00;6.40;;;3.42;;
42192;SDS011;52467;40.114;18.306;2022-12-20T14:28:56;6.78;;;3.75;;
42192;SDS011;52467;40.114;18.306;2022-12-20T14:36:46;13.30;;;6.22;;
42192;SDS011;52467;40.114;18.306;2022-12-20T14:41:56;9.60;;;4.18;;
42192;SDS011;52467;40.114;18.306;2022-12-20T14:44:28;9.45;;;3.45;;
42192;SDS011;52467;40.114;18.306;2022-12-20T14:46:58;8.80;;;3.47;;
42192;SDS011;52467;40.114;18.306;2022-12-20T14:49:31;8.87;;;3.47;;
42192;SDS011;52467;40.114;18.306;2022-12-20T14:52:04;6.95;;;3.70;;
42192;SDS011;52467;40.114;18.306;2022-12-20T14:54:49;11.63;;;4.28;;
42192;SDS011;52467;40.114;18.306;2022-12-20T14:57:38;11.85;;;3.53;;
42192;SDS011;52467;40.114;18.306;2022-12-20T15:08:20;5.95;;;3.65;;
42192;SDS011;52467;40.114;18.306;2022-12-20T15:13:44;8.25;;;3.67;;
42192;SDS011;52467;40.114;18.306;2022-12-20T15:18:47;8.48;;;3.63;;
42192;SDS011;52467;40.114;18.306;2022-12-20T15:21:28;7.60;;;3.33;;
42192;SDS011;52467;40.114;18.306;2022-12-20T15:24:10;8.10;;;3.65;;
42192;SDS011;52467;40.114;18.306;2022-12-20T15:26:40;9.38;;;3.83;;
42192;SDS011;52467;40.114;18.306;2022-12-20T15:29:14;7.80;;;4.25;;
42192;SDS011;52467;40.114;18.306;2022-12-20T15:31:43;11.43;;;5.18;;
42192;SDS011;52467;40.114;18.306;2022-12-20T15:34:15;11.80;;;4.93;;
42192;SDS011;52467;40.114;18.306;2022-12-20T15:36:45;9.65;;;4.93;;
42192;SDS011;52467;40.114;18.306;2022-12-20T15:39:13;9.32;;;4.95;;
42192;SDS011;52467;40.114;18.306;2022-12-20T15:41:42;11.38;;;4.85;;
42192;SDS011;52467;40.114;18.306;2022-12-20T15:44:15;14.07;;;6.68;;
42192;SDS011;52467;40.114;18.306;2022-12-20T15:46:45;11.38;;;5.65;;
42192;SDS011;52467;40.114;18.306;2022-12-20T15:49:13;15.57;;;6.60;;
42192;SDS011;52467;40.114;18.306;2022-12-20T15:51:41;13.45;;;6.60;;
42192;SDS011;52467;40.114;18.306;2022-12-20T15:56:54;14.65;;;7.10;;
42192;SDS011;52467;40.114;18.306;2022-12-20T15:59:25;16.33;;;7.38;;
42192;SDS011;52467;40.114;18.306;2022-12-20T16:02:25;17.77;;;7.75;;
42192;SDS011;52467;40.114;18.306;2022-12-20T16:04:54;17.70;;;8.25;;
42192;SDS011;52467;40.114;18.306;2022-12-20T16:07:21;22.30;;;10.30;;
42192;SDS011;52467;40.114;18.306;2022-12-20T16:09:49;19.08;;;9.57;;
42192;SDS011;52467;40.114;18.306;2022-12-20T16:12:17;19.30;;;9.43;;
42192;SDS011;52467;40.114;18.306;2022-12-20T16:14:47;16.30;;;9.38;;
42192;SDS011;52467;40.114;18.306;2022-12-20T16:17:22;21.48;;;9.75;;
42192;SDS011;52467;40.114;18.306;2022-12-20T16:19:49;16.27;;;7.90;;
42192;SDS011;52467;40.114;18.306;2022-12-20T16:22:18;21.87;;;9.03;;
42192;SDS011;52467;40.114;18.306;2022-12-20T16:24:48;16.02;;;8.32;;
42192;SDS011;52467;40.114;18.306;2022-12-20T16:27:16;16.60;;;8.13;;
42192;SDS011;52467;40.114;18.306;2022-12-20T16:29:43;18.77;;;8.48;;
42192;SDS011;52467;40.114;18.306;2022-12-20T16:32:14;14.23;;;7.53;;
42192;SDS011;52467;40.114;18.306;2022-12-20T16:34:43;21.45;;;7.90;;
42192;SDS011;52467;40.114;18.306;2022-12-20T16:37:11;15.10;;;7.93;;
42192;SDS011;52467;40.114;18.306;2022-12-20T16:39:39;16.38;;;8.27;;
42192;SDS011;52467;40.114;18.306;2022-12-20T16:42:13;16.30;;;8.60;;
42192;SDS011;52467;40.114;18.306;2022-12-20T16:44:41;17.13;;;8.65;;
42192;SDS011;52467;40.114;18.306;2022-12-20T16:47:10;15.38;;;8.75;;
42192;SDS011;52467;40.114;18.306;2022-12-20T16:49:38;20.25;;;9.70;;
42192;SDS011;52467;40.114;18.306;2022-12-20T16:52:11;20.57;;;9.33;;
42192;SDS011;52467;40.114;18.306;2022-12-20T16:54:42;19.23;;;8.82;;
42192;SDS011;52467;40.114;18.306;2022-12-20T16:57:09;17.05;;;8.73;;
42192;SDS011;52467;40.114;18.306;2022-12-20T16:59:37;17.58;;;9.27;;
42192;SDS011;52467;40.114;18.306;2022-12-20T17:02:04;21.67;;;9.65;;
42192;SDS011;52467;40.114;18.306;2022-12-20T17:04:59;22.02;;;9.88;;